sensor_id;sensor_type;location;lat;lon;timestamp;P1;durP1;ratioP1;P2;durP2;ratioP2
9342;SDS011;4710;51.382;7.244;2022-10-22T00:00:06;2.28;;;1.90;;
9342;SDS011;4710;51.382;7.244;2022-10-22T00:03:20;3.87;;;2.03;;
9342;SDS011;4710;51.382;7.244;2022-10-22T00:06:29;2.45;;;2.00;;
9342;SDS011;4710;51.382;7.244;2022-10-22T00:09:37;2.33;;;2.12;;
9342;SDS011;4710;51.382;7.244;2022-10-22T00:12:45;6.12;;;2.30;;
9342;SDS011;4710;51.382;7.244;2022-10-22T00:15:59;3.03;;;2.00;;
9342;SDS011;4710;51.382;7.244;2022-10-22T00:19:11;4.30;;;2.00;;
9342;SDS011;4710;51.382;7.244;2022-10-22T00:33:08;4.32;;;2.22;;
9342;SDS011;4710;51.382;7.244;2022-10-22T00:36:16;2.95;;;2.20;;
9342;SDS011;4710;51.382;7.244;2022-10-22T00:39:27;3.72;;;2.25;;
9342;SDS011;4710;51.382;7.244;2022-10-22T00:42:34;3.30;;;2.10;;
9342;SDS011;4710;51.382;7.244;2022-10-22T00:45:45;2.73;;;1.90;;
9342;SDS011;4710;51.382;7.244;2022-10-22T00:48:54;2.20;;;2.10;;
9342;SDS011;4710;51.382;7.244;2022-10-22T00:52:04;3.50;;;2.37;;
9342;SDS011;4710;51.382;7.244;2022-10-22T00:55:12;2.53;;;2.00;;
9342;SDS011;4710;51.382;7.244;2022-10-22T01:09:21;2.55;;;2.25;;
9342;SDS011;4710;51.382;7.244;2022-10-22T01:16:16;3.25;;;2.28;;
9342;SDS011;4710;51.382;7.244;2022-10-22T01:23:15;2.67;;;2.05;;
9342;SDS011;4710;51.382;7.244;2022-10-22T01:30:13;5.07;;;2.10;;
9342;SDS011;4710;51.382;7.244;2022-10-22T01:33:25;3.40;;;2.30;;
9342;SDS011;4710;51.382;7.244;2022-10-22T01:36:43;4.03;;;2.00;;
9342;SDS011;4710;51.382;7.244;2022-10-22T01:39:51;4.20;;;2.10;;
9342;SDS011;4710;51.382;7.244;2022-10-22T01:43:01;3.78;;;2.15;;
9342;SDS011;4710;51.382;7.244;2022-10-22T01:46:11;2.75;;;2.15;;
9342;SDS011;4710;51.382;7.244;2022-10-22T01:49:31;4.87;;;2.37;;
9342;SDS011;4710;51.382;7.244;2022-10-22T01:52:55;6.50;;;2.40;;
9342;SDS011;4710;51.382;7.244;2022-10-22T01:56:30;2.00;;;1.90;;
9342;SDS011;4710;51.382;7.244;2022-10-22T01:59:49;2.53;;;2.33;;
9342;SDS011;4710;51.382;7.244;2022-10-22T02:02:59;5.68;;;2.35;;
9342;SDS011;4710;51.382;7.244;2022-10-22T02:06:14;4.65;;;2.22;;
9342;SDS011;4710;51.382;7.244;2022-10-22T02:09:26;3.72;;;2.40;;
9342;SDS011;4710;51.382;7.244;2022-10-22T02:12:35;3.95;;;2.42;;
9342;SDS011;4710;51.382;7.244;2022-10-22T02:15:45;5.18;;;2.50;;
9342;SDS011;4710;51.382;7.244;2022-10-22T02:18:57;3.53;;;2.47;;
9342;SDS011;4710;51.382;7.244;2022-10-22T02:22:05;4.00;;;2.37;;
9342;SDS011;4710;51.382;7.244;2022-10-22T02:25:16;4.03;;;2.37;;
9342;SDS011;4710;51.382;7.244;2022-10-22T02:28:34;3.00;;;2.10;;
9342;SDS011;4710;51.382;7.244;2022-10-22T02:31:51;2.55;;;2.35;;
9342;SDS011;4710;51.382;7.244;2022-10-22T02:35:09;6.22;;;2.40;;
9342;SDS011;4710;51.382;7.244;2022-10-22T02:38:19;2.93;;;2.07;;
9342;SDS011;4710;51.382;7.244;2022-10-22T02:41:27;5.18;;;2.33;;
9342;SDS011;4710;51.382;7.244;2022-10-22T02:44:40;4.15;;;2.30;;
9342;SDS011;4710;51.382;7.244;2022-10-22T02:47:51;3.28;;;2.40;;
9342;SDS011;4710;51.382;7.244;2022-10-22T02:50:58;3.30;;;2.17;;
9342;SDS011;4710;51.382;7.244;2022-10-22T02:54:07;3.65;;;2.20;;
9342;SDS011;4710;51.382;7.244;2022-10-22T02:57:23;3.80;;;2.42;;
9342;SDS011;4710;51.382;7.244;2022-10-22T03:00:34;2.85;;;2.28;;
9342;SDS011;4710;51.382;7.244;2022-10-22T03:03:56;5.40;;;2.40;;
9342;SDS011;4710;51.382;7.244;2022-10-22T03:07:07;3.70;;;2.45;;
9342;SDS011;4710;51.382;7.244;2022-10-22T03:10:20;3.90;;;2.00;;
9342;SDS011;4710;51.382;7.244;2022-10-22T03:13:36;3.35;;;2.42;;
9342;SDS011;4710;51.382;7.244;2022-10-22T03:16:47;5.50;;;2.50;;
9342;SDS011;4710;51.382;7.244;2022-10-22T03:19:58;4.22;;;2.45;;
9342;SDS011;4710;51.382;7.244;2022-10-22T03:23:11;3.95;;;2.22;;
9342;SDS011;4710;51.382;7.244;2022-10-22T03:26:29;3.80;;;2.37;;
9342;SDS011;4710;51.382;7.244;2022-10-22T03:29:46;3.90;;;2.40;;
9342;SDS011;4710;51.382;7.244;2022-10-22T03:32:57;3.47;;;2.30;;
9342;SDS011;4710;51.382;7.244;2022-10-22T03:36:11;2.75;;;2.40;;
9342;SDS011;4710;51.382;7.244;2022-10-22T03:39:19;3.33;;;2.50;;
9342;SDS011;4710;51.382;7.244;2022-10-22T03:42:32;3.45;;;2.60;;
9342;SDS011;4710;51.382;7.244;2022-10-22T03:45:40;4.80;;;2.65;;
9342;SDS011;4710;51.382;7.244;2022-10-22T03:48:50;4.90;;;2.67;;
9342;SDS011;4710;51.382;7.244;2022-10-22T03:52:04;4.03;;;2.35;;
9342;SDS011;4710;51.382;7.244;2022-10-22T03:55:11;7.20;;;2.50;;
9342;SDS011;4710;51.382;7.244;2022-10-22T03:58:22;3.17;;;2.50;;
9342;SDS011;4710;51.382;7.244;2022-10-22T04:01:30;2.72;;;2.42;;
9342;SDS011;4710;51.382;7.244;2022-10-22T04:04:42;3.50;;;2.30;;
9342;SDS011;4710;51.382;7.244;2022-10-22T04:07:52;4.18;;;2.50;;
9342;SDS011;4710;51.382;7.244;2022-10-22T04:11:03;4.20;;;3.22;;
9342;SDS011;4710;51.382;7.244;2022-10-22T04:14:24;3.95;;;2.80;;
9342;SDS011;4710;51.382;7.244;2022-10-22T04:17:35;3.45;;;2.90;;
9342;SDS011;4710;51.382;7.244;2022-10-22T04:20:50;4.60;;;2.78;;
9342;SDS011;4710;51.382;7.244;2022-10-22T04:24:10;5.75;;;2.62;;
9342;SDS011;4710;51.382;7.244;2022-10-22T04:27:22;3.03;;;2.70;;
9342;SDS011;4710;51.382;7.244;2022-10-22T04:30:30;5.53;;;2.90;;
9342;SDS011;4710;51.382;7.244;2022-10-22T04:33:42;5.90;;;2.50;;
9342;SDS011;4710;51.382;7.244;2022-10-22T04:36:53;4.32;;;2.80;;
9342;SDS011;4710;51.382;7.244;2022-10-22T04:40:10;4.45;;;3.20;;
9342;SDS011;4710;51.382;7.244;2022-10-22T04:43:27;3.30;;;3.00;;
9342;SDS011;4710;51.382;7.244;2022-10-22T04:46:35;6.40;;;3.28;;
9342;SDS011;4710;51.382;7.244;2022-10-22T04:49:47;3.17;;;2.80;;
9342;SDS011;4710;51.382;7.244;2022-10-22T04:53:03;4.45;;;3.10;;
9342;SDS011;4710;51.382;7.244;2022-10-22T04:56:17;4.18;;;3.17;;
9342;SDS011;4710;51.382;7.244;2022-10-22T04:59:27;3.30;;;2.60;;
9342;SDS011;4710;51.382;7.244;2022-10-22T05:06:00;6.43;;;2.92;;
9342;SDS011;4710;51.382;7.244;2022-10-22T05:09:12;4.28;;;2.75;;
9342;SDS011;4710;51.382;7.244;2022-10-22T05:12:28;3.25;;;3.00;;
9342;SDS011;4710;51.382;7.244;2022-10-22T05:15:38;3.33;;;2.60;;
9342;SDS011;4710;51.382;7.244;2022-10-22T05:18:49;4.87;;;2.95;;
9342;SDS011;4710;51.382;7.244;2022-10-22T05:22:01;3.50;;;3.20;;
9342;SDS011;4710;51.382;7.244;2022-10-22T05:25:11;3.87;;;3.30;;
9342;SDS011;4710;51.382;7.244;2022-10-22T05:28:28;3.92;;;3.53;;
9342;SDS011;4710;51.382;7.244;2022-10-22T05:31:39;4.47;;;3.67;;
9342;SDS011;4710;51.382;7.244;2022-10-22T05:34:47;4.20;;;3.80;;
9342;SDS011;4710;51.382;7.244;2022-10-22T05:37:54;4.70;;;3.92;;
9342;SDS011;4710;51.382;7.244;2022-10-22T05:41:07;4.35;;;4.05;;
9342;SDS011;4710;51.382;7.244;2022-10-22T05:47:40;4.30;;;3.75;;
9342;SDS011;4710;51.382;7.244;2022-10-22T05:50:51;5.18;;;3.70;;
9342;SDS011;4710;51.382;7.244;2022-10-22T05:54:05;9.40;;;4.22;;
9342;SDS011;4710;51.382;7.244;2022-10-22T05:57:19;7.17;;;3.27;;
9342;SDS011;4710;51.382;7.244;2022-10-22T06:00:27;4.82;;;3.55;;
9342;SDS011;4710;51.382;7.244;2022-10-22T06:03:38;7.22;;;3.75;;
9342;SDS011;4710;51.382;7.244;2022-10-22T06:06:51;8.38;;;4.25;;
9342;SDS011;4710;51.382;7.244;2022-10-22T06:10:01;4.20;;;3.85;;
9342;SDS011;4710;51.382;7.244;2022-10-22T06:13:21;7.28;;;4.22;;
9342;SDS011;4710;51.382;7.244;2022-10-22T06:16:35;6.32;;;3.85;;
9342;SDS011;4710;51.382;7.244;2022-10-22T06:19:46;6.27;;;3.37;;
9342;SDS011;4710;51.382;7.244;2022-10-22T06:23:03;4.68;;;4.20;;
9342;SDS011;4710;51.382;7.244;2022-10-22T06:26:20;5.20;;;4.03;;
9342;SDS011;4710;51.382;7.244;2022-10-22T06:29:31;4.53;;;4.20;;
9342;SDS011;4710;51.382;7.244;2022-10-22T06:32:45;4.05;;;3.85;;
9342;SDS011;4710;51.382;7.244;2022-10-22T06:35:54;5.05;;;4.20;;
9342;SDS011;4710;51.382;7.244;2022-10-22T06:39:15;5.00;;;3.95;;
9342;SDS011;4710;51.382;7.244;2022-10-22T06:52:53;4.87;;;3.20;;
9342;SDS011;4710;51.382;7.244;2022-10-22T06:56:07;4.05;;;3.33;;
9342;SDS011;4710;51.382;7.244;2022-10-22T06:59:24;3.70;;;3.40;;
9342;SDS011;4710;51.382;7.244;2022-10-22T07:02:42;4.47;;;3.10;;
9342;SDS011;4710;51.382;7.244;2022-10-22T07:05:54;3.80;;;3.40;;
9342;SDS011;4710;51.382;7.244;2022-10-22T07:09:01;3.10;;;2.90;;
9342;SDS011;4710;51.382;7.244;2022-10-22T07:12:09;4.47;;;3.03;;
9342;SDS011;4710;51.382;7.244;2022-10-22T07:15:17;5.60;;;2.80;;
9342;SDS011;4710;51.382;7.244;2022-10-22T07:18:28;3.17;;;2.83;;
9342;SDS011;4710;51.382;7.244;2022-10-22T07:21:39;3.45;;;3.20;;
9342;SDS011;4710;51.382;7.244;2022-10-22T07:24:53;5.95;;;3.17;;
9342;SDS011;4710;51.382;7.244;2022-10-22T07:27:59;2.83;;;2.60;;
9342;SDS011;4710;51.382;7.244;2022-10-22T07:31:11;3.67;;;3.10;;
9342;SDS011;4710;51.382;7.244;2022-10-22T07:34:21;6.10;;;2.78;;
9342;SDS011;4710;51.382;7.244;2022-10-22T07:37:38;3.55;;;2.60;;
9342;SDS011;4710;51.382;7.244;2022-10-22T07:40:58;2.90;;;2.70;;
9342;SDS011;4710;51.382;7.244;2022-10-22T07:47:24;3.65;;;2.65;;
9342;SDS011;4710;51.382;7.244;2022-10-22T07:50:33;4.10;;;2.55;;
9342;SDS011;4710;51.382;7.244;2022-10-22T07:53:47;4.50;;;2.40;;
9342;SDS011;4710;51.382;7.244;2022-10-22T07:56:59;2.57;;;2.33;;
9342;SDS011;4710;51.382;7.244;2022-10-22T08:00:12;3.03;;;2.30;;
9342;SDS011;4710;51.382;7.244;2022-10-22T08:03:20;2.72;;;2.53;;
9342;SDS011;4710;51.382;7.244;2022-10-22T08:06:28;3.92;;;2.50;;
9342;SDS011;4710;51.382;7.244;2022-10-22T08:09:39;3.45;;;2.37;;
9342;SDS011;4710;51.382;7.244;2022-10-22T08:12:46;3.40;;;2.40;;
9342;SDS011;4710;51.382;7.244;2022-10-22T08:15:53;4.03;;;2.40;;
9342;SDS011;4710;51.382;7.244;2022-10-22T08:19:16;2.90;;;2.05;;
9342;SDS011;4710;51.382;7.244;2022-10-22T08:22:25;4.65;;;2.30;;
9342;SDS011;4710;51.382;7.244;2022-10-22T08:25:36;5.97;;;2.60;;
9342;SDS011;4710;51.382;7.244;2022-10-22T08:28:44;2.80;;;2.00;;
9342;SDS011;4710;51.382;7.244;2022-10-22T08:31:52;3.17;;;2.37;;
9342;SDS011;4710;51.382;7.244;2022-10-22T08:35:00;4.22;;;2.10;;
9342;SDS011;4710;51.382;7.244;2022-10-22T08:38:11;3.00;;;2.40;;
9342;SDS011;4710;51.382;7.244;2022-10-22T08:41:23;5.10;;;1.87;;
9342;SDS011;4710;51.382;7.244;2022-10-22T08:44:47;5.00;;;2.10;;
9342;SDS011;4710;51.382;7.244;2022-10-22T08:51:24;4.78;;;2.20;;
9342;SDS011;4710;51.382;7.244;2022-10-22T08:54:36;5.97;;;2.05;;
9342;SDS011;4710;51.382;7.244;2022-10-22T08:57:48;4.40;;;2.20;;
9342;SDS011;4710;51.382;7.244;2022-10-22T09:00:58;5.72;;;2.35;;
9342;SDS011;4710;51.382;7.244;2022-10-22T09:04:16;5.40;;;2.08;;
9342;SDS011;4710;51.382;7.244;2022-10-22T09:07:29;4.85;;;2.40;;
9342;SDS011;4710;51.382;7.244;2022-10-22T09:10:37;5.25;;;2.35;;
9342;SDS011;4710;51.382;7.244;2022-10-22T09:13:45;5.97;;;2.12;;
9342;SDS011;4710;51.382;7.244;2022-10-22T09:20:13;4.10;;;2.05;;
9342;SDS011;4710;51.382;7.244;2022-10-22T09:23:30;5.07;;;2.08;;
9342;SDS011;4710;51.382;7.244;2022-10-22T09:26:36;3.30;;;1.95;;
9342;SDS011;4710;51.382;7.244;2022-10-22T09:29:44;4.35;;;2.00;;
9342;SDS011;4710;51.382;7.244;2022-10-22T09:36:29;4.00;;;1.90;;
9342;SDS011;4710;51.382;7.244;2022-10-22T09:39:38;3.40;;;2.00;;
9342;SDS011;4710;51.382;7.244;2022-10-22T09:42:45;2.72;;;2.10;;
9342;SDS011;4710;51.382;7.244;2022-10-22T09:45:56;3.40;;;2.00;;
9342;SDS011;4710;51.382;7.244;2022-10-22T09:49:13;4.37;;;2.30;;
9342;SDS011;4710;51.382;7.244;2022-10-22T09:52:26;4.80;;;2.10;;
9342;SDS011;4710;51.382;7.244;2022-10-22T09:55:42;4.95;;;2.50;;
9342;SDS011;4710;51.382;7.244;2022-10-22T09:58:56;4.10;;;2.20;;
9342;SDS011;4710;51.382;7.244;2022-10-22T10:02:14;2.17;;;2.00;;
9342;SDS011;4710;51.382;7.244;2022-10-22T10:05:35;3.25;;;1.92;;
9342;SDS011;4710;51.382;7.244;2022-10-22T10:08:47;3.67;;;2.15;;
9342;SDS011;4710;51.382;7.244;2022-10-22T10:12:12;4.07;;;2.10;;
9342;SDS011;4710;51.382;7.244;2022-10-22T10:19:20;2.83;;;1.85;;
9342;SDS011;4710;51.382;7.244;2022-10-22T10:22:40;4.30;;;2.20;;
9342;SDS011;4710;51.382;7.244;2022-10-22T10:26:08;5.05;;;2.15;;
9342;SDS011;4710;51.382;7.244;2022-10-22T10:29:30;3.83;;;2.00;;
9342;SDS011;4710;51.382;7.244;2022-10-22T10:36:18;3.75;;;2.58;;
9342;SDS011;4710;51.382;7.244;2022-10-22T10:50:03;3.70;;;1.90;;
9342;SDS011;4710;51.382;7.244;2022-10-22T10:53:17;4.07;;;2.07;;
9342;SDS011;4710;51.382;7.244;2022-10-22T10:56:39;1.92;;;1.65;;
9342;SDS011;4710;51.382;7.244;2022-10-22T11:06:48;1.93;;;1.73;;
9342;SDS011;4710;51.382;7.244;2022-10-22T11:10:00;4.70;;;2.67;;
9342;SDS011;4710;51.382;7.244;2022-10-22T11:13:10;5.95;;;4.25;;
9342;SDS011;4710;51.382;7.244;2022-10-22T11:16:39;2.57;;;1.73;;
9342;SDS011;4710;51.382;7.244;2022-10-22T11:19:59;2.97;;;1.77;;
9342;SDS011;4710;51.382;7.244;2022-10-22T11:23:08;3.58;;;1.80;;
9342;SDS011;4710;51.382;7.244;2022-10-22T11:26:29;3.55;;;1.80;;
9342;SDS011;4710;51.382;7.244;2022-10-22T11:29:38;2.65;;;1.55;;
9342;SDS011;4710;51.382;7.244;2022-10-22T11:32:48;3.10;;;1.65;;
9342;SDS011;4710;51.382;7.244;2022-10-22T11:35:56;3.33;;;1.67;;
9342;SDS011;4710;51.382;7.244;2022-10-22T11:42:40;4.55;;;1.87;;
9342;SDS011;4710;51.382;7.244;2022-10-22T11:46:07;4.30;;;1.75;;
9342;SDS011;4710;51.382;7.244;2022-10-22T11:53:05;1.73;;;1.45;;
9342;SDS011;4710;51.382;7.244;2022-10-22T11:56:26;1.93;;;1.50;;
9342;SDS011;4710;51.382;7.244;2022-10-22T11:59:47;1.98;;;1.30;;
9342;SDS011;4710;51.382;7.244;2022-10-22T12:03:14;2.10;;;1.48;;
9342;SDS011;4710;51.382;7.244;2022-10-22T12:06:26;1.52;;;1.33;;
9342;SDS011;4710;51.382;7.244;2022-10-22T12:09:39;1.67;;;1.33;;
9342;SDS011;4710;51.382;7.244;2022-10-22T12:16:23;2.23;;;0.97;;
9342;SDS011;4710;51.382;7.244;2022-10-22T12:19:36;2.62;;;1.27;;
9342;SDS011;4710;51.382;7.244;2022-10-22T12:22:46;3.03;;;1.37;;
9342;SDS011;4710;51.382;7.244;2022-10-22T12:26:02;5.53;;;1.50;;
9342;SDS011;4710;51.382;7.244;2022-10-22T12:29:25;2.22;;;1.40;;
9342;SDS011;4710;51.382;7.244;2022-10-22T12:32:34;3.58;;;1.67;;
9342;SDS011;4710;51.382;7.244;2022-10-22T12:35:42;5.22;;;4.60;;
9342;SDS011;4710;51.382;7.244;2022-10-22T12:38:49;3.80;;;2.80;;
9342;SDS011;4710;51.382;7.244;2022-10-22T12:42:14;9.10;;;8.10;;
9342;SDS011;4710;51.382;7.244;2022-10-22T12:45:25;3.33;;;1.87;;
9342;SDS011;4710;51.382;7.244;2022-10-22T12:48:36;1.60;;;1.50;;
9342;SDS011;4710;51.382;7.244;2022-10-22T12:51:41;1.58;;;1.37;;
9342;SDS011;4710;51.382;7.244;2022-10-22T12:54:49;2.53;;;1.95;;
9342;SDS011;4710;51.382;7.244;2022-10-22T12:58:03;3.60;;;1.65;;
9342;SDS011;4710;51.382;7.244;2022-10-22T13:01:10;1.77;;;1.45;;
9342;SDS011;4710;51.382;7.244;2022-10-22T13:14:48;1.55;;;1.30;;
9342;SDS011;4710;51.382;7.244;2022-10-22T13:18:04;1.75;;;1.65;;
9342;SDS011;4710;51.382;7.244;2022-10-22T13:21:25;3.03;;;1.62;;
9342;SDS011;4710;51.382;7.244;2022-10-22T13:24:31;3.78;;;1.50;;
9342;SDS011;4710;51.382;7.244;2022-10-22T13:31:22;2.15;;;1.45;;
9342;SDS011;4710;51.382;7.244;2022-10-22T13:34:44;1.60;;;1.42;;
9342;SDS011;4710;51.382;7.244;2022-10-22T13:37:54;1.58;;;1.30;;
9342;SDS011;4710;51.382;7.244;2022-10-22T13:41:16;2.58;;;1.90;;
9342;SDS011;4710;51.382;7.244;2022-10-22T13:44:23;2.63;;;1.20;;
9342;SDS011;4710;51.382;7.244;2022-10-22T13:47:31;2.12;;;1.27;;
9342;SDS011;4710;51.382;7.244;2022-10-22T13:50:48;6.30;;;2.33;;
9342;SDS011;4710;51.382;7.244;2022-10-22T13:53:56;2.78;;;1.85;;
9342;SDS011;4710;51.382;7.244;2022-10-22T13:57:08;2.62;;;1.40;;
9342;SDS011;4710;51.382;7.244;2022-10-22T14:00:16;3.08;;;2.33;;
9342;SDS011;4710;51.382;7.244;2022-10-22T14:03:29;2.92;;;1.65;;
9342;SDS011;4710;51.382;7.244;2022-10-22T14:06:41;4.10;;;1.45;;
9342;SDS011;4710;51.382;7.244;2022-10-22T14:09:54;1.77;;;1.67;;
9342;SDS011;4710;51.382;7.244;2022-10-22T14:13:09;3.10;;;1.62;;
9342;SDS011;4710;51.382;7.244;2022-10-22T14:16:21;3.72;;;1.75;;
9342;SDS011;4710;51.382;7.244;2022-10-22T14:19:29;2.47;;;1.65;;
9342;SDS011;4710;51.382;7.244;2022-10-22T14:22:40;2.35;;;1.45;;
9342;SDS011;4710;51.382;7.244;2022-10-22T14:25:50;3.15;;;1.90;;
9342;SDS011;4710;51.382;7.244;2022-10-22T15:44:04;1.95;;;1.55;;
9342;SDS011;4710;51.382;7.244;2022-10-22T15:57:59;4.72;;;1.42;;
9342;SDS011;4710;51.382;7.244;2022-10-22T16:12:03;2.05;;;1.60;;
9342;SDS011;4710;51.382;7.244;2022-10-22T16:15:11;4.25;;;1.90;;
9342;SDS011;4710;51.382;7.244;2022-10-22T16:18:20;2.65;;;1.80;;
9342;SDS011;4710;51.382;7.244;2022-10-22T16:35:41;3.83;;;2.22;;
9342;SDS011;4710;51.382;7.244;2022-10-22T16:49:30;2.42;;;2.05;;
9342;SDS011;4710;51.382;7.244;2022-10-22T16:52:39;3.45;;;2.30;;
9342;SDS011;4710;51.382;7.244;2022-10-22T16:55:49;6.40;;;2.60;;
9342;SDS011;4710;51.382;7.244;2022-10-22T16:59:03;5.03;;;2.20;;
9342;SDS011;4710;51.382;7.244;2022-10-22T17:02:11;4.37;;;2.40;;
9342;SDS011;4710;51.382;7.244;2022-10-22T17:05:19;7.93;;;2.30;;
9342;SDS011;4710;51.382;7.244;2022-10-22T17:08:30;6.30;;;1.87;;
9342;SDS011;4710;51.382;7.244;2022-10-22T17:11:41;3.13;;;2.10;;
9342;SDS011;4710;51.382;7.244;2022-10-22T17:25:34;7.40;;;2.77;;
9342;SDS011;4710;51.382;7.244;2022-10-22T17:28:40;4.87;;;2.90;;
9342;SDS011;4710;51.382;7.244;2022-10-22T17:31:51;11.23;;;3.60;;
9342;SDS011;4710;51.382;7.244;2022-10-22T17:35:05;5.37;;;3.50;;
9342;SDS011;4710;51.382;7.244;2022-10-22T17:38:15;5.78;;;4.03;;
9342;SDS011;4710;51.382;7.244;2022-10-22T17:41:33;5.70;;;4.00;;
9342;SDS011;4710;51.382;7.244;2022-10-22T17:44:43;6.15;;;4.15;;
9342;SDS011;4710;51.382;7.244;2022-10-22T17:47:54;5.05;;;4.07;;
9342;SDS011;4710;51.382;7.244;2022-10-22T17:58:08;3.47;;;3.20;;
9342;SDS011;4710;51.382;7.244;2022-10-22T18:04:50;3.20;;;2.90;;
9342;SDS011;4710;51.382;7.244;2022-10-22T18:08:05;5.30;;;3.00;;
9342;SDS011;4710;51.382;7.244;2022-10-22T18:32:40;3.83;;;3.00;;
9342;SDS011;4710;51.382;7.244;2022-10-22T18:36:03;3.72;;;2.60;;
9342;SDS011;4710;51.382;7.244;2022-10-22T19:00:17;2.93;;;2.63;;
9342;SDS011;4710;51.382;7.244;2022-10-22T19:13:58;3.67;;;2.60;;
9342;SDS011;4710;51.382;7.244;2022-10-22T19:17:06;2.62;;;2.40;;
9342;SDS011;4710;51.382;7.244;2022-10-22T19:20:25;5.22;;;2.50;;
9342;SDS011;4710;51.382;7.244;2022-10-22T19:23:36;4.37;;;2.92;;
9342;SDS011;4710;51.382;7.244;2022-10-22T19:26:45;4.40;;;3.08;;
9342;SDS011;4710;51.382;7.244;2022-10-22T19:29:56;3.97;;;2.90;;
9342;SDS011;4710;51.382;7.244;2022-10-22T19:33:05;4.40;;;2.80;;
9342;SDS011;4710;51.382;7.244;2022-10-22T19:36:14;3.65;;;2.90;;
9342;SDS011;4710;51.382;7.244;2022-10-22T19:39:25;5.82;;;3.50;;
9342;SDS011;4710;51.382;7.244;2022-10-22T19:42:34;3.28;;;3.05;;
9342;SDS011;4710;51.382;7.244;2022-10-22T19:45:45;3.80;;;3.33;;
9342;SDS011;4710;51.382;7.244;2022-10-22T19:49:04;5.27;;;2.77;;
9342;SDS011;4710;51.382;7.244;2022-10-22T19:52:12;3.42;;;3.12;;
9342;SDS011;4710;51.382;7.244;2022-10-22T19:55:19;4.72;;;3.20;;
9342;SDS011;4710;51.382;7.244;2022-10-22T19:58:31;4.05;;;3.03;;
9342;SDS011;4710;51.382;7.244;2022-10-22T20:01:41;2.57;;;2.47;;
9342;SDS011;4710;51.382;7.244;2022-10-22T20:04:49;4.18;;;2.70;;
9342;SDS011;4710;51.382;7.244;2022-10-22T20:08:00;3.83;;;2.72;;
9342;SDS011;4710;51.382;7.244;2022-10-22T20:11:09;3.47;;;2.20;;
9342;SDS011;4710;51.382;7.244;2022-10-22T20:14:16;3.15;;;2.20;;
9342;SDS011;4710;51.382;7.244;2022-10-22T20:17:24;4.53;;;2.20;;
9342;SDS011;4710;51.382;7.244;2022-10-22T20:20:33;6.30;;;2.05;;
9342;SDS011;4710;51.382;7.244;2022-10-22T20:23:41;3.62;;;2.10;;
9342;SDS011;4710;51.382;7.244;2022-10-22T20:26:51;4.18;;;1.98;;
9342;SDS011;4710;51.382;7.244;2022-10-22T20:30:11;2.33;;;2.07;;
9342;SDS011;4710;51.382;7.244;2022-10-22T20:33:17;4.60;;;2.22;;
9342;SDS011;4710;51.382;7.244;2022-10-22T20:36:26;2.75;;;2.20;;
9342;SDS011;4710;51.382;7.244;2022-10-22T20:39:36;5.65;;;3.00;;
9342;SDS011;4710;51.382;7.244;2022-10-22T20:42:44;3.28;;;2.85;;
9342;SDS011;4710;51.382;7.244;2022-10-22T20:45:52;3.97;;;2.60;;
9342;SDS011;4710;51.382;7.244;2022-10-22T20:49:04;3.95;;;2.72;;
9342;SDS011;4710;51.382;7.244;2022-10-22T20:52:15;4.68;;;2.80;;
9342;SDS011;4710;51.382;7.244;2022-10-22T20:55:23;3.42;;;2.70;;
9342;SDS011;4710;51.382;7.244;2022-10-22T20:58:34;3.87;;;3.00;;
9342;SDS011;4710;51.382;7.244;2022-10-22T21:01:47;5.90;;;2.80;;
9342;SDS011;4710;51.382;7.244;2022-10-22T21:04:53;5.03;;;2.75;;
9342;SDS011;4710;51.382;7.244;2022-10-22T21:08:04;4.72;;;2.87;;
9342;SDS011;4710;51.382;7.244;2022-10-22T21:11:16;6.93;;;2.67;;
9342;SDS011;4710;51.382;7.244;2022-10-22T21:14:23;3.70;;;2.55;;
9342;SDS011;4710;51.382;7.244;2022-10-22T21:17:34;6.30;;;2.70;;
9342;SDS011;4710;51.382;7.244;2022-10-22T21:20:45;3.90;;;2.65;;
9342;SDS011;4710;51.382;7.244;2022-10-22T21:23:56;2.80;;;2.47;;
9342;SDS011;4710;51.382;7.244;2022-10-22T21:27:07;4.12;;;2.10;;
9342;SDS011;4710;51.382;7.244;2022-10-22T21:30:18;7.40;;;2.50;;
9342;SDS011;4710;51.382;7.244;2022-10-22T21:33:25;6.50;;;2.40;;
9342;SDS011;4710;51.382;7.244;2022-10-22T21:36:33;5.20;;;2.58;;
9342;SDS011;4710;51.382;7.244;2022-10-22T21:39:44;2.90;;;2.40;;
9342;SDS011;4710;51.382;7.244;2022-10-22T21:42:55;5.27;;;2.07;;
9342;SDS011;4710;51.382;7.244;2022-10-22T21:46:05;3.47;;;2.25;;
9342;SDS011;4710;51.382;7.244;2022-10-22T21:49:12;3.75;;;2.00;;
9342;SDS011;4710;51.382;7.244;2022-10-22T21:52:19;2.37;;;2.10;;
9342;SDS011;4710;51.382;7.244;2022-10-22T21:55:27;3.75;;;2.40;;
9342;SDS011;4710;51.382;7.244;2022-10-22T21:58:38;2.95;;;2.25;;
9342;SDS011;4710;51.382;7.244;2022-10-22T22:01:49;5.18;;;2.37;;
9342;SDS011;4710;51.382;7.244;2022-10-22T22:05:01;4.27;;;2.20;;
9342;SDS011;4710;51.382;7.244;2022-10-22T22:08:08;4.40;;;2.12;;
9342;SDS011;4710;51.382;7.244;2022-10-22T22:11:17;5.63;;;2.43;;
9342;SDS011;4710;51.382;7.244;2022-10-22T22:14:24;2.70;;;2.50;;
9342;SDS011;4710;51.382;7.244;2022-10-22T22:17:32;6.93;;;2.95;;
9342;SDS011;4710;51.382;7.244;2022-10-22T22:20:39;3.03;;;2.33;;
9342;SDS011;4710;51.382;7.244;2022-10-22T22:23:50;4.68;;;2.30;;
9342;SDS011;4710;51.382;7.244;2022-10-22T22:26:58;5.47;;;2.50;;
9342;SDS011;4710;51.382;7.244;2022-10-22T22:30:06;5.75;;;2.70;;
9342;SDS011;4710;51.382;7.244;2022-10-22T22:33:13;4.28;;;2.55;;
9342;SDS011;4710;51.382;7.244;2022-10-22T22:36:20;2.80;;;2.20;;
9342;SDS011;4710;51.382;7.244;2022-10-22T22:39:34;3.78;;;2.25;;
9342;SDS011;4710;51.382;7.244;2022-10-22T22:42:45;2.53;;;2.03;;
9342;SDS011;4710;51.382;7.244;2022-10-22T22:45:57;2.90;;;1.90;;
9342;SDS011;4710;51.382;7.244;2022-10-22T22:49:04;5.75;;;2.40;;
9342;SDS011;4710;51.382;7.244;2022-10-22T22:52:12;4.43;;;2.60;;
9342;SDS011;4710;51.382;7.244;2022-10-22T22:55:20;3.67;;;2.20;;
9342;SDS011;4710;51.382;7.244;2022-10-22T22:58:31;4.62;;;2.25;;
9342;SDS011;4710;51.382;7.244;2022-10-22T23:01:39;4.95;;;2.10;;
9342;SDS011;4710;51.382;7.244;2022-10-22T23:04:49;6.00;;;2.40;;
9342;SDS011;4710;51.382;7.244;2022-10-22T23:07:58;6.82;;;2.20;;
9342;SDS011;4710;51.382;7.244;2022-10-22T23:11:08;4.30;;;2.15;;
9342;SDS011;4710;51.382;7.244;2022-10-22T23:14:15;7.37;;;2.35;;
9342;SDS011;4710;51.382;7.244;2022-10-22T23:17:23;4.20;;;2.15;;
9342;SDS011;4710;51.382;7.244;2022-10-22T23:23:09;2.87;;;1.90;;
9342;SDS011;4710;51.382;7.244;2022-10-22T23:26:18;3.05;;;2.20;;
9342;SDS011;4710;51.382;7.244;2022-10-22T23:29:27;3.83;;;2.42;;
9342;SDS011;4710;51.382;7.244;2022-10-22T23:32:34;3.87;;;2.37;;
9342;SDS011;4710;51.382;7.244;2022-10-22T23:35:42;5.78;;;1.98;;
9342;SDS011;4710;51.382;7.244;2022-10-22T23:38:50;4.25;;;2.37;;
9342;SDS011;4710;51.382;7.244;2022-10-22T23:42:01;2.95;;;2.05;;
9342;SDS011;4710;51.382;7.244;2022-10-22T23:45:09;3.45;;;2.28;;
9342;SDS011;4710;51.382;7.244;2022-10-22T23:48:20;3.83;;;1.80;;
9342;SDS011;4710;51.382;7.244;2022-10-22T23:51:28;4.35;;;2.00;;
9342;SDS011;4710;51.382;7.244;2022-10-22T23:54:39;3.00;;;1.80;;
9342;SDS011;4710;51.382;7.244;2022-10-22T23:57:50;2.83;;;2.00;;
